Latest Weather Observations for Port Macquarie Airport

IDN60801

Issued at 2:33 pm EST Thursday 28 July 2016 (issued every 30 minutes, with the page automatically refreshed every 10 minutes)

About weather observations | Map of weather stations | Latest weather observations for NSW | Other Formats
Station Details ID: 060139 Name: PORT MACQUARIE AIRPORT AWS Lat: -31.43 Lon: 152.87 Height: 4.2 m
Data from the previous 72 hours. | See also: Recent months at Port Macquarie Airport
Date/Time
EST
Temp
°C
App
Temp
°C
Dew
Point
°C
Rel
Hum
%
Delta-T
°C
Wind Press
QNH
hPa
Press
MSL
hPa
Rain since
9am
mm
Dir  Spd
km/h
Gust
km/h
Spd
kts
Gust
kts
28/02:30pm 18.0 14.6 5.9 45 5.9 NE 13 15 7 8 1021.8 1021.8 0.0
28/02:00pm 18.3 15.3 4.1 39 6.7 ENE 9 13 5 7 1021.7 1021.7 0.0
28/01:30pm 18.0 15.1 2.7 36 7.0 WNW 7 13 4 7 1022.0 1022.0 0.0
28/01:00pm 17.9 14.7 3.0 37 6.8 NW 9 17 5 9 1022.4 1022.4 0.0
28/12:30pm 17.5 14.3 3.0 38 6.7 SW 9 13 5 7 1023.0 1023.0 0.0
28/12:00pm 17.1 13.8 2.7 38 6.5 SSW 9 15 5 8 1023.6 1023.6 0.0
28/11:30am 17.3 13.5 3.9 41 6.3 S 13 17 7 9 1024.0 1024.0 0.0
28/11:00am 16.6 12.9 4.3 44 5.7 W 13 22 7 12 1024.3 1024.3 0.0
28/10:30am 16.1 13.5 4.2 45 5.5 WNW 7 11 4 6 1024.7 1024.7 0.0
28/10:00am 14.7 11.3 3.8 48 5.0 WNW 11 15 6 8 1024.7 1024.7 0.0
28/09:30am 14.1 10.1 4.7 53 4.4 WNW 15 19 8 10 1024.8 1024.8 0.0
28/09:00am 12.4 9.5 4.6 59 3.5 WNW 9 13 5 7 1024.6 1024.6 0.0
28/08:30am 10.9 7.6 4.6 65 2.8 WNW 11 15 6 8 1024.5 1024.5 0.0
28/08:00am 9.0 6.8 5.4 78 1.6 WNW 6 13 3 7 1024.4 1024.4 0.0
28/07:30am 4.0 2.5 3.1 94 0.4 CALM 0 4 0 2 1023.9 1023.9 0.0
28/07:00am 1.7 -0.2 0.5 92 0.4 CALM 0 0 0 0 1023.6 1023.6 0.0
28/06:30am 1.4 -0.6 0.1 91 0.5 CALM 0 0 0 0 1023.3 1023.3 0.0
28/06:00am 0.9 -1.9 -0.1 93 0.4 W 4 7 2 4 1022.9 1022.9 0.0
28/05:30am 1.0 -1.7 0.0 93 0.4 SSE 4 9 2 5 1022.5 1022.5 0.0
28/05:00am 1.4 -1.3 0.2 92 0.4 N 4 13 2 7 1022.2 1022.2 0.0
28/04:30am 2.1 -0.5 0.9 92 0.5 NW 4 7 2 4 1021.9 1021.9 0.0
28/04:00am 1.1 -2.1 -0.4 90 0.5 WNW 6 9 3 5 1021.5 1021.5 0.0
28/03:30am 1.4 -0.6 0.1 91 0.5 CALM 0 0 0 0 1021.4 1021.4 0.0
28/03:00am 2.0 0.1 0.5 90 0.6 CALM 0 0 0 0 1021.4 1021.4 0.0
28/02:30am 3.9 1.6 2.9 93 0.4 NNE 4 7 2 4 1021.5 1021.5 0.0
28/02:00am 2.9 -0.1 1.7 92 0.5 W 7 9 4 5 1021.2 1021.2 0.0
28/01:30am 3.5 0.3 2.8 95 0.3 WSW 9 9 5 5 1021.1 1021.1 0.0
28/01:00am 2.5 -0.9 1.6 94 0.3 SSW 9 11 5 6 1020.9 1020.9 0.0
28/12:30am 2.5 -0.6 1.5 93 0.4 SSW 7 9 4 5 1020.8 1020.8 0.0
28/12:00am 2.6 -0.5 1.4 92 0.5 WSW 7 9 4 5 1020.6 1020.6 0.0
 
Date/Time
EST
Temp
°C
App
Temp
°C
Dew
Point
°C
Rel
Hum
%
Delta-T
°C
Wind Press
QNH
hPa
Press
MSL
hPa
Rain since
9am
mm
Dir  Spd
km/h
Gust
km/h
Spd
kts
Gust
kts
27/11:30pm 2.9 1.1 1.1 88 0.7 CALM 0 0 0 0 1020.5 1020.5 0.0
27/11:00pm 3.9 2.3 2.3 89 0.6 CALM 0 0 0 0 1020.2 1020.2 0.0
27/10:30pm 4.3 2.7 2.3 87 0.8 CALM 0 0 0 0 1020.0 1020.0 0.0
27/10:00pm 5.2 3.4 3.5 89 0.7 SW 2 6 1 3 1019.9 1019.9 0.0
27/09:30pm 4.8 1.6 2.8 87 0.8 WSW 9 11 5 6 1019.7 1019.7 0.0
27/09:00pm 6.1 3.5 4.4 89 0.7 WSW 7 7 4 4 1019.6 1019.6 0.0
27/08:30pm 5.8 3.0 3.0 82 1.2 SW 7 9 4 5 1019.4 1019.4 0.0
27/08:00pm 6.8 5.0 3.6 80 1.4 WNW 2 7 1 4 1019.0 1019.0 0.0
27/07:30pm 8.6 6.4 5.2 79 1.5 N 6 7 3 4 1018.7 1018.7 0.0
27/07:00pm 8.9 7.3 2.7 65 2.6 CALM 0 0 0 0 1018.2 1018.2 0.0
27/06:30pm 10.6 7.9 2.4 57 3.5 WNW 6 7 3 4 1017.9 1017.9 0.0
27/06:00pm 15.5 12.3 3.0 43 5.6 W 9 13 5 7 1017.1 1017.1 0.0
27/05:30pm 16.4 13.1 2.4 39 6.3 WNW 9 15 5 8 1016.7 1016.7 0.0
27/05:00pm 17.6 12.4 2.4 36 6.9 WNW 19 26 10 14 1016.0 1016.0 0.0
27/04:30pm 18.8 14.0 2.6 34 7.5 WNW 17 26 9 14 1015.5 1015.5 0.0
27/04:00pm 19.5 15.3 4.0 36 7.4 W 15 22 8 12 1015.3 1015.3 0.0
27/03:30pm 19.6 14.3 2.9 33 7.8 WSW 20 30 11 16 1014.8 1014.8 0.0
27/03:00pm 20.5 15.3 3.3 32 8.1 W 20 32 11 17 1014.5 1014.5 0.0
27/02:30pm 20.0 15.6 4.9 37 7.3 WSW 17 24 9 13 1014.3 1014.3 0.0
27/02:00pm 19.1 16.3 5.2 40 6.8 WNW 9 15 5 8 1014.3 1014.3 0.0
27/01:30pm 19.5 16.6 4.4 37 7.2 NW 9 15 5 8 1014.2 1014.2 0.0
27/01:00pm 19.5 16.6 4.8 38 7.1 N 9 15 5 8 1014.1 1014.1 0.0
27/12:30pm 18.7 15.8 4.8 40 6.7 NW 9 13 5 7 1014.5 1014.5 0.0
27/12:00pm 18.1 14.8 4.7 41 6.4 NNE 11 17 6 9 1015.0 1015.0 0.0
27/11:30am 18.0 15.6 5.2 43 6.2 NNE 7 15 4 8 1015.4 1015.4 0.0
27/11:00am 17.7 13.9 3.9 40 6.5 NNE 13 17 7 9 1015.5 1015.5 0.0
27/10:30am 17.3 14.1 5.3 45 5.8 N 11 20 6 11 1015.9 1015.9 0.0
27/10:00am 16.2 13.0 6.9 54 4.6 N 13 17 7 9 1016.2 1016.2 0.0
27/09:30am 14.0 11.4 7.8 66 3.1 N 11 13 6 7 1016.7 1016.7 0.0
27/09:00am 11.8 9.9 7.5 75 2.1 NNW 7 11 4 6 1016.7 1016.7 0.0
27/08:30am 9.7 7.7 7.0 83 1.3 N 7 9 4 5 1016.9 1016.9 0.0
27/08:00am 7.3 6.6 6.9 97 0.2 CALM 0 0 0 0 1016.9 1016.9 0.0
27/07:30am 3.5 1.9 2.5 93 0.4 CALM 0 0 0 0 1017.2 1017.2 0.0
27/07:00am 3.8 2.3 2.9 94 0.4 CALM 0 0 0 0 1017.0 1017.0 0.0
27/06:30am 4.2 2.7 3.0 92 0.5 CALM 0 7 0 4 1016.7 1016.7 0.0
27/06:00am 5.4 4.1 4.2 92 0.5 CALM 0 0 0 0 1016.5 1016.5 0.0
27/05:30am 3.9 2.3 2.3 89 0.6 CALM 0 0 0 0 1016.4 1016.4 0.0
27/05:00am 5.7 3.7 4.5 92 0.5 NW 4 7 2 4 1016.1 1016.1 0.0
27/04:30am 5.8 4.5 4.1 89 0.7 CALM 0 0 0 0 1015.9 1015.9 0.0
27/04:00am 6.1 4.8 4.3 88 0.8 CALM 0 0 0 0 1015.6 1015.6 0.0
27/03:30am 7.7 6.6 5.0 83 1.2 CALM 0 0 0 0 1015.8 1015.8 0.0
27/03:00am 6.5 4.0 4.0 84 1.1 SW 6 7 3 4 1016.3 1016.3 0.0
27/02:30am 9.2 8.1 5.2 76 1.8 CALM 0 0 0 0 1016.0 1016.0 0.0
27/02:00am 9.3 7.9 5.3 76 1.8 WNW 2 9 1 5 1016.3 1016.3 0.0
27/01:30am 9.8 6.7 5.4 74 2.0 W 11 17 6 9 1016.3 1016.3 0.0
27/01:00am 10.1 6.3 5.9 75 1.9 W 15 20 8 11 1016.3 1016.3 0.0
27/12:30am 9.9 6.6 6.3 78 1.7 WNW 13 17 7 9 1016.4 1016.4 0.0
27/12:00am 9.7 6.6 7.3 85 1.1 W 13 20 7 11 1016.1 1016.1 0.0
 
Date/Time
EST
Temp
°C
App
Temp
°C
Dew
Point
°C
Rel
Hum
%
Delta-T
°C
Wind Press
QNH
hPa
Press
MSL
hPa
Rain since
9am
mm
Dir  Spd
km/h
Gust
km/h
Spd
kts
Gust
kts
26/11:30pm 5.7 3.6 4.0 89 0.7 SW 4 9 2 5 1016.1 1016.1 0.0
26/11:00pm 7.7 6.1 6.3 91 0.6 N 4 9 2 5 1016.3 1016.3 0.0
26/10:30pm 5.3 2.7 4.1 92 0.5 SSE 7 9 4 5 1016.3 1016.3 0.0
26/10:00pm 5.3 3.7 4.3 93 0.4 W 2 9 1 5 1016.3 1016.3 0.0
26/09:30pm 4.9 2.2 3.6 91 0.5 NW 7 7 4 4 1016.4 1016.4 0.0
26/09:00pm 5.4 4.1 4.1 91 0.5 CALM 0 2 0 1 1016.3 1016.3 0.0
26/08:30pm 5.6 3.9 4.2 91 0.6 W 2 7 1 4 1016.2 1016.2 0.0
26/08:00pm 6.0 4.7 4.2 88 0.8 CALM 0 0 0 0 1016.2 1016.2 0.0
26/07:30pm 6.6 5.4 4.8 88 0.8 CALM 0 0 0 0 1015.9 1015.9 0.0
26/07:00pm 7.7 5.5 5.3 85 1.1 NW 6 9 3 5 1015.7 1015.7 0.0
26/06:30pm 8.5 7.4 5.3 80 1.4 CALM 0 0 0 0 1015.6 1015.6 0.0
26/06:00pm 9.4 8.4 5.4 76 1.8 CALM 0 0 0 0 1015.6 1015.6 0.0
26/05:30pm 11.3 8.8 5.0 65 2.9 N 7 9 4 5 1015.2 1015.2 0.0
26/05:00pm 14.7 11.8 4.7 51 4.7 NNE 9 11 5 6 1014.9 1014.9 0.0
26/04:30pm 16.7 13.1 2.7 39 6.4 NE 11 15 6 8 1014.9 1014.9 0.0
26/04:00pm 17.1 13.3 4.1 42 6.1 ENE 13 17 7 9 1014.8 1014.8 0.0
26/03:30pm 17.3 12.9 2.9 38 6.6 ENE 15 19 8 10 1015.1 1015.1 0.0
26/03:00pm 17.6 13.6 4.9 43 6.1 NE 15 24 8 13 1015.1 1015.1 0.0
26/02:30pm 17.2 13.2 4.9 44 5.9 ENE 15 19 8 10 1015.4 1015.4 0.0
26/02:00pm 17.4 13.8 5.0 44 5.9 ENE 13 17 7 9 1015.6 1015.6 0.0
26/01:30pm 17.6 13.8 3.9 40 6.4 ENE 13 15 7 8 1015.6 1015.6 0.0
26/01:00pm 17.1 13.2 3.4 40 6.3 ENE 13 20 7 11 1015.9 1015.9 0.0
26/12:30pm 17.6 14.4 4.9 43 6.1 NE 11 15 6 8 1016.2 1016.2 0.0
26/12:00pm 17.4 14.3 5.7 46 5.7 NE 11 13 6 7 1016.6 1016.6 0.0
26/11:30am 17.7 15.5 5.3 44 6.0 NNW 6 15 3 8 1017.0 1017.0 0.0
26/11:00am 16.6 14.7 3.0 40 6.2 W 2 9 1 5 1017.4 1017.4 0.0
26/10:30am 15.5 12.5 3.9 46 5.3 WNW 9 13 5 7 1017.7 1017.7 0.0
26/10:00am 13.9 11.0 4.8 54 4.2 WNW 9 13 5 7 1018.0 1018.0 0.0
26/09:30am 12.4 9.1 4.4 58 3.6 WNW 11 13 6 7 1018.2 1018.2 0.0
26/09:00am 11.0 8.1 4.7 65 2.8 WNW 9 13 5 7 1017.9 1017.9 0.0
26/08:30am 9.3 6.2 3.7 68 2.4 WNW 9 11 5 6 1017.7 1017.7 0.0
26/08:00am 6.8 4.0 5.3 90 0.7 WNW 9 11 5 6 1017.8 1017.8 0.0
26/07:30am 2.2 0.1 1.5 95 0.3 NNW 2 7 1 4 1017.8 1017.8 0.0
26/07:00am 0.2 -2.6 -0.6 94 0.3 WNW 4 11 2 6 1017.8 1017.8 0.0
26/06:30am 0.0 -2.1 -1.0 93 0.4 CALM 0 0 0 0 1017.6 1017.6 0.0
26/06:00am 0.8 -1.2 -0.3 92 0.4 CALM 0 0 0 0 1016.9 1016.9 0.0
26/05:30am 2.1 -1.0 1.2 94 0.3 NNW 7 9 4 5 1016.6 1016.6 0.0
26/05:00am 0.9 -1.1 0.0 94 0.3 CALM 0 0 0 0 1016.6 1016.6 0.0
26/04:30am 1.5 -1.5 0.5 93 0.4 WSW 6 9 3 5 1016.4 1016.4 0.0
26/04:00am 1.7 -0.5 0.8 94 0.3 NNE 2 7 1 4 1016.3 1016.3 0.0
26/03:30am 1.9 -1.2 1.2 95 0.3 SE 7 9 4 5 1016.0 1016.0 0.0
26/03:00am 2.3 -1.2 1.4 94 0.3 NW 9 13 5 7 1016.0 1016.0 0.0
26/02:30am 1.0 -2.3 0.0 93 0.4 WNW 7 13 4 7 1015.7 1015.7 0.0
26/02:00am 1.9 -0.7 1.2 95 0.3 SW 4 6 2 3 1016.1 1016.1 0.0
26/01:30am 1.1 -2.0 0.2 94 0.3 S 6 9 3 5 1016.3 1016.3 0.0
26/01:00am 1.2 -0.8 0.0 92 0.4 CALM 0 0 0 0 1016.1 1016.1 0.0
26/12:30am 2.0 0.2 1.0 93 0.4 CALM 0 0 0 0 1016.4 1016.4 0.0
26/12:00am 1.7 -0.3 0.2 90 0.5 CALM 0 0 0 0 1016.2 1016.2 0.0
 
Date/Time
EST
Temp
°C
App
Temp
°C
Dew
Point
°C
Rel
Hum
%
Delta-T
°C
Wind Press
QNH
hPa
Press
MSL
hPa
Rain since
9am
mm
Dir  Spd
km/h
Gust
km/h
Spd
kts
Gust
kts
25/11:30pm 3.7 1.0 2.5 92 0.5 N 6 7 3 4 1016.0 1016.0 0.0
25/11:00pm 3.4 0.4 2.2 92 0.5 W 7 9 4 5 1016.1 1016.1 0.0
25/10:30pm 3.4 1.2 1.3 86 0.8 N 2 6 1 3 1015.7 1015.7 0.0
25/10:00pm 4.1 2.0 1.8 85 0.9 NNW 2 7 1 4 1015.9 1015.9 0.0
25/09:30pm 4.7 1.9 2.9 88 0.7 W 7 9 4 5 1016.0 1016.0 0.0
25/09:00pm 4.9 3.2 1.7 80 1.3 CALM 0 0 0 0 1016.2 1016.2 0.0
25/08:30pm 6.1 4.0 1.8 74 1.7 E 2 6 1 3 1016.2 1016.2 0.0
25/08:00pm 6.8 3.8 1.9 71 2.0 N 7 7 4 4 1016.3 1016.3 0.0
25/07:30pm 10.5 7.5 2.1 56 3.6 N 7 9 4 5 1016.0 1016.0 0.0
25/07:00pm 8.0 4.6 1.6 64 2.6 WNW 9 11 5 6 1015.7 1015.7 0.0
25/06:30pm 12.6 9.5 1.3 46 4.8 NW 7 9 4 5 1015.4 1015.4 0.0
25/06:00pm 13.7 9.6 0.0 39 5.7 WNW 11 17 6 9 1014.9 1014.9 0.0
25/05:30pm 15.4 11.6 -0.8 33 6.7 WNW 9 13 5 7 1014.5 1014.5 0.0
25/05:00pm 16.7 12.2 -0.5 31 7.3 WNW 13 20 7 11 1014.0 1014.0 0.0
25/04:30pm 18.3 13.6 -1.5 26 8.3 WNW 13 20 7 11 1013.8 1013.8 0.0
25/04:00pm 19.1 13.2 -1.9 24 8.8 WNW 19 30 10 16 1013.4 1013.4 0.0
25/03:30pm 19.4 13.3 -2.2 23 9.1 WNW 20 32 11 17 1013.1 1013.1 0.0
25/03:00pm 19.8 14.0 -1.3 24 9.1 WNW 19 30 10 16 1013.0 1013.0 0.0

Other Formats:

Comma delimited format used in spreadsheet applications
http://www.bom.gov.au/fwo/IDN60801/IDN60801.94786.axf

JavaScript Object Notation format (JSON) in row-major order
http://www.bom.gov.au/fwo/IDN60801/IDN60801.94786.json